Time;durP1;ratioP1;P1;durP2;ratioP2;P2;SDS_P1;SDS_P2;PMS_P1;PMS_P2;Temp;Humidity;BMP_temperature;BMP_pressure;BME280_temperature;BME280_humidity;BME280_pressure;Samples;Min_cycle;Max_cycle;Signal;HPM_P1;HPM_P2
2021/10/11 00:01:35;;;;;;;12.20;8.43;;;4.30;99.90;;;;;;1915335;73;21557;-78
2021/10/11 00:04:01;;;;;;;14.00;9.40;;;4.40;99.90;;;;;;1936329;72;21488;-78
2021/10/11 00:06:27;;;;;;;12.10;9.00;;;4.30;99.90;;;;;;1923696;73;21532;-77
2021/10/11 00:08:53;;;;;;;10.48;8.80;;;4.30;99.90;;;;;;1934619;72;21047;-78
2021/10/11 00:11:19;;;;;;;17.92;9.48;;;4.30;99.90;;;;;;1925808;73;21161;-78
2021/10/11 00:13:45;;;;;;;20.70;10.43;;;4.30;99.90;;;;;;1930981;73;21157;-78
2021/10/11 00:16:12;;;;;;;14.85;9.40;;;4.30;99.90;;;;;;1923953;73;21132;-77
2021/10/11 00:18:39;;;;;;;17.07;9.50;;;4.20;99.90;;;;;;1942662;72;21094;-77
2021/10/11 00:21:05;;;;;;;13.00;9.78;;;4.30;99.90;;;;;;1933980;73;21573;-78
2021/10/11 00:23:31;;;;;;;22.45;10.10;;;4.20;99.90;;;;;;1918599;72;21478;-77
2021/10/11 00:25:57;;;;;;;12.73;10.03;;;4.20;99.90;;;;;;1914349;73;21568;-78
2021/10/11 00:28:23;;;;;;;12.55;8.65;;;4.10;99.90;;;;;;1925749;73;21491;-78
2021/10/11 00:30:49;;;;;;;12.73;9.08;;;4.10;99.90;;;;;;1932299;72;21157;-78
2021/10/11 00:33:15;;;;;;;13.10;9.10;;;4.10;99.90;;;;;;1938782;72;21067;-78
2021/10/11 00:35:41;;;;;;;11.78;8.43;;;4.10;99.90;;;;;;1940749;72;21156;-78
2021/10/11 00:38:07;;;;;;;12.40;8.75;;;4.10;99.90;;;;;;1945000;71;21040;-78
2021/10/11 00:40:34;;;;;;;14.23;8.73;;;4.10;99.90;;;;;;1940149;73;21083;-77
2021/10/11 00:43:00;;;;;;;19.27;8.50;;;4.00;99.90;;;;;;1941353;72;21070;-78
2021/10/11 00:45:26;;;;;;;12.63;8.80;;;4.10;99.90;;;;;;1930108;73;21063;-78
2021/10/11 00:47:52;;;;;;;16.17;9.15;;;4.00;99.90;;;;;;1945891;72;21083;-77
2021/10/11 00:50:18;;;;;;;14.95;9.00;;;3.90;99.90;;;;;;1931159;73;21149;-78
2021/10/11 00:52:44;;;;;;;13.32;9.25;;;3.90;99.90;;;;;;1914643;72;21069;-77
2021/10/11 00:55:10;;;;;;;15.58;9.08;;;3.90;99.90;;;;;;1944145;72;21132;-78
2021/10/11 00:57:36;;;;;;;16.60;9.53;;;3.90;99.90;;;;;;1925403;72;21087;-78
2021/10/11 01:00:03;;;;;;;14.38;9.60;;;3.90;99.90;;;;;;1937290;72;21082;-77
2021/10/11 01:02:29;;;;;;;12.88;9.38;;;3.80;99.90;;;;;;1931281;72;21568;-77
2021/10/11 01:04:55;;;;;;;16.07;9.53;;;3.80;99.90;;;;;;1947934;71;21431;-78
2021/10/11 01:07:21;;;;;;;13.55;9.18;;;3.80;99.90;;;;;;1941926;72;21584;-78
2021/10/11 01:09:47;;;;;;;14.20;9.20;;;3.80;99.90;;;;;;1936838;73;21079;-77
2021/10/11 01:12:13;;;;;;;13.25;8.65;;;3.80;99.90;;;;;;1939903;72;21247;-78
2021/10/11 01:14:39;;;;;;;11.93;9.63;;;3.80;99.90;;;;;;1936378;73;21126;-78
2021/10/11 01:17:05;;;;;;;15.93;9.90;;;3.80;99.90;;;;;;1938801;72;21062;-77
2021/10/11 01:19:31;;;;;;;12.35;9.40;;;3.70;99.90;;;;;;1925082;72;21044;-77
2021/10/11 01:21:58;;;;;;;14.18;9.43;;;3.70;99.90;;;;;;1931742;72;21242;-77
2021/10/11 01:24:24;;;;;;;10.58;8.83;;;3.70;99.90;;;;;;1937305;72;21140;-78
2021/10/11 01:26:50;;;;;;;14.85;9.35;;;3.60;99.90;;;;;;1943626;72;21075;-76
2021/10/11 01:29:16;;;;;;;13.80;9.73;;;3.60;99.90;;;;;;1938544;71;21133;-77
2021/10/11 01:31:42;;;;;;;12.40;8.93;;;3.60;99.90;;;;;;1943572;72;21079;-77
2021/10/11 01:34:08;;;;;;;11.80;9.40;;;3.50;99.90;;;;;;1935352;73;21040;-77
2021/10/11 01:36:34;;;;;;;14.65;9.33;;;3.60;99.90;;;;;;1933705;73;21148;-77
2021/10/11 01:39:00;;;;;;;13.03;9.08;;;3.60;99.90;;;;;;1929550;72;21083;-77
2021/10/11 01:41:27;;;;;;;11.90;8.50;;;3.50;99.90;;;;;;1916606;73;21498;-76
2021/10/11 01:43:53;;;;;;;15.95;9.25;;;3.50;99.90;;;;;;1918972;73;21478;-77
2021/10/11 01:46:19;;;;;;;13.58;8.90;;;3.50;99.90;;;;;;1951948;72;21428;-76
2021/10/11 01:48:45;;;;;;;11.38;8.93;;;3.40;99.90;;;;;;1916447;73;21067;-75
2021/10/11 01:51:11;;;;;;;13.72;8.80;;;3.40;99.90;;;;;;1936948;72;21160;-76
2021/10/11 01:53:37;;;;;;;15.30;10.00;;;3.40;99.90;;;;;;1940337;73;21163;-77
2021/10/11 01:56:03;;;;;;;17.82;9.28;;;3.40;99.90;;;;;;1930775;73;21136;-76
2021/10/11 01:58:29;;;;;;;13.65;9.13;;;3.40;99.90;;;;;;1950917;71;21070;-77
2021/10/11 02:00:56;;;;;;;18.23;9.70;;;3.40;99.90;;;;;;1924445;72;21044;-77
2021/10/11 02:03:22;;;;;;;14.38;9.65;;;3.40;99.90;;;;;;1936304;73;21075;-77
2021/10/11 02:05:48;;;;;;;13.35;9.35;;;3.30;99.90;;;;;;1947661;71;21269;-77
2021/10/11 02:08:14;;;;;;;20.25;9.28;;;3.30;99.90;;;;;;1928998;73;21070;-76
2021/10/11 02:10:40;;;;;;;11.63;8.70;;;3.30;99.90;;;;;;1935903;72;21073;-77
2021/10/11 02:13:06;;;;;;;12.25;9.65;;;3.20;99.90;;;;;;1928446;73;21078;-76
2021/10/11 02:15:32;;;;;;;15.08;10.43;;;3.30;99.90;;;;;;1938266;72;21039;-76
2021/10/11 02:17:58;;;;;;;24.12;10.65;;;3.20;99.90;;;;;;1938027;72;21302;-78
2021/10/11 02:20:25;;;;;;;12.50;10.10;;;3.20;99.90;;;;;;1938035;73;21510;-77
2021/10/11 02:22:51;;;;;;;15.48;9.95;;;3.20;99.90;;;;;;1942560;72;21512;-75
2021/10/11 02:25:17;;;;;;;16.82;10.23;;;3.20;99.90;;;;;;1922749;72;21498;-77
2021/10/11 02:27:43;;;;;;;11.80;9.43;;;3.20;99.90;;;;;;1933038;72;21989;-76
2021/10/11 02:30:09;;;;;;;15.93;10.18;;;3.20;99.90;;;;;;1933192;72;21122;-77
2021/10/11 02:32:35;;;;;;;16.73;11.10;;;3.20;99.90;;;;;;1941407;71;21130;-77
2021/10/11 02:35:01;;;;;;;15.93;10.18;;;3.20;99.90;;;;;;1935828;72;21113;-77
2021/10/11 02:37:27;;;;;;;12.93;10.05;;;3.20;99.90;;;;;;1928859;73;21075;-76
2021/10/11 02:39:53;;;;;;;13.58;10.00;;;3.10;99.90;;;;;;1944008;73;21066;-77
2021/10/11 02:42:20;;;;;;;23.20;10.37;;;3.20;99.90;;;;;;1911358;73;21074;-76
2021/10/11 02:44:46;;;;;;;16.07;9.70;;;3.20;99.90;;;;;;1935268;72;21210;-76
2021/10/11 02:47:12;;;;;;;14.40;10.05;;;3.20;99.90;;;;;;1934326;73;21079;-76
2021/10/11 02:49:38;;;;;;;18.65;9.83;;;3.10;99.90;;;;;;1914263;73;21597;-76
2021/10/11 02:52:04;;;;;;;14.83;9.73;;;3.10;99.90;;;;;;1938689;73;21508;-76
2021/10/11 02:54:30;;;;;;;10.00;8.63;;;3.10;99.90;;;;;;1926837;73;21416;-76
2021/10/11 02:56:56;;;;;;;13.90;9.80;;;3.00;99.90;;;;;;1907432;72;21477;-78
2021/10/11 02:59:22;;;;;;;11.70;9.53;;;2.90;99.90;;;;;;1921696;72;21054;-78
2021/10/11 03:01:49;;;;;;;14.28;9.70;;;2.90;99.90;;;;;;1923490;73;21152;-77
2021/10/11 03:04:15;;;;;;;12.45;10.15;;;2.90;99.90;;;;;;1938101;72;21062;-77
2021/10/11 03:06:41;;;;;;;16.52;10.32;;;2.90;99.90;;;;;;1928347;73;21039;-75
2021/10/11 03:09:07;;;;;;;25.60;11.28;;;2.90;99.90;;;;;;1938999;72;21140;-77
2021/10/11 03:11:34;;;;;;;15.93;10.07;;;2.90;99.90;;;;;;1936364;72;21067;-77
2021/10/11 03:14:00;;;;;;;16.25;11.15;;;2.90;99.90;;;;;;1932643;72;21534;-77
2021/10/11 03:16:26;;;;;;;14.18;11.05;;;2.90;99.90;;;;;;1938659;72;21482;-76
2021/10/11 03:18:52;;;;;;;16.30;11.43;;;2.90;99.90;;;;;;1931368;71;21463;-77
2021/10/11 03:21:20;;;;;;;21.77;12.07;;;2.90;99.90;;;;;;1911094;72;21451;-77
2021/10/11 03:23:46;;;;;;;23.70;11.65;;;2.90;99.90;;;;;;1920250;72;21204;-77
2021/10/11 03:26:12;;;;;;;17.57;11.43;;;2.90;99.90;;;;;;1923318;72;21082;-76
2021/10/11 03:28:38;;;;;;;16.95;11.00;;;2.90;99.90;;;;;;1937935;73;21297;-76
2021/10/11 03:31:04;;;;;;;17.75;11.88;;;2.90;99.90;;;;;;1941322;72;21565;-76
2021/10/11 03:33:30;;;;;;;17.02;11.43;;;2.80;99.90;;;;;;1932763;73;21470;-77
2021/10/11 03:35:57;;;;;;;18.05;11.80;;;2.70;99.90;;;;;;1917411;73;21477;-77
2021/10/11 03:38:23;;;;;;;17.15;11.55;;;2.70;99.90;;;;;;1931643;72;21556;-77
2021/10/11 03:40:49;;;;;;;14.98;10.40;;;2.70;99.90;;;;;;1939544;72;21136;-77
2021/10/11 03:43:15;;;;;;;18.92;11.35;;;2.70;99.90;;;;;;1937745;72;21036;-77
2021/10/11 03:45:41;;;;;;;17.00;10.88;;;2.70;99.90;;;;;;1932064;71;21148;-77
2021/10/11 03:48:07;;;;;;;16.32;11.75;;;2.80;99.90;;;;;;1917664;72;21066;-77
2021/10/11 03:50:33;;;;;;;26.77;11.65;;;2.80;99.90;;;;;;1940695;72;21074;-77
2021/10/11 03:52:59;;;;;;;15.45;11.60;;;2.70;99.90;;;;;;1940824;72;21066;-77
2021/10/11 03:55:25;;;;;;;16.93;11.35;;;2.60;99.90;;;;;;1947456;72;21077;-78
2021/10/11 03:57:52;;;;;;;14.87;11.35;;;2.60;99.90;;;;;;1925172;72;21140;-77
2021/10/11 04:00:18;;;;;;;12.63;10.63;;;2.60;99.90;;;;;;1938003;72;21199;-77
2021/10/11 04:02:44;;;;;;;19.80;11.38;;;2.70;99.90;;;;;;1940801;72;21132;-77
2021/10/11 04:05:10;;;;;;;16.65;11.28;;;2.80;99.90;;;;;;1921610;72;21039;-78
2021/10/11 04:07:38;;;;;;;17.73;11.15;;;2.80;99.90;;;;;;1944451;72;21409;-77
2021/10/11 04:10:05;;;;;;;17.35;11.03;;;2.70;99.90;;;;;;1934708;72;21112;-78
2021/10/11 04:12:36;;;;;;;16.00;11.57;;;2.70;99.90;;;;;;1924872;73;21162;-77
2021/10/11 04:15:02;;;;;;;17.87;11.55;;;2.70;99.90;;;;;;1943583;72;21080;-78
2021/10/11 04:17:28;;;;;;;19.12;11.50;;;2.70;99.90;;;;;;1919172;72;21059;-77
2021/10/11 04:19:54;;;;;;;14.98;10.60;;;2.70;99.90;;;;;;1930280;72;21044;-77
2021/10/11 04:22:21;;;;;;;19.77;11.38;;;2.70;99.90;;;;;;1933620;72;21078;-78
2021/10/11 04:24:47;;;;;;;16.25;10.43;;;2.70;99.90;;;;;;1915260;72;21091;-76
2021/10/11 04:27:13;;;;;;;20.35;11.03;;;2.70;99.90;;;;;;1919766;72;21096;-77
2021/10/11 04:29:39;;;;;;;16.77;10.65;;;2.70;99.90;;;;;;1931616;72;21589;-79
2021/10/11 04:32:05;;;;;;;14.45;10.20;;;2.70;99.90;;;;;;1940555;73;21502;-76
2021/10/11 04:34:31;;;;;;;17.00;11.30;;;2.70;99.90;;;;;;1921966;72;21462;-78
2021/10/11 04:36:57;;;;;;;16.67;10.78;;;2.60;99.90;;;;;;1918414;73;21435;-79
2021/10/11 04:39:23;;;;;;;14.30;11.20;;;2.70;99.90;;;;;;1933734;73;21079;-80
2021/10/11 04:41:49;;;;;;;19.95;11.57;;;2.70;99.90;;;;;;1944116;71;21074;-79
2021/10/11 04:44:16;;;;;;;15.18;11.45;;;2.70;99.90;;;;;;1943375;71;21339;-79
2021/10/11 04:46:42;;;;;;;16.17;11.60;;;2.70;99.90;;;;;;1925143;72;21207;-80
2021/10/11 04:49:08;;;;;;;15.20;10.75;;;2.60;99.90;;;;;;1936414;72;21102;-78
2021/10/11 04:51:34;;;;;;;16.12;12.05;;;2.70;99.90;;;;;;1943202;73;21070;-78
2021/10/11 04:54:00;;;;;;;20.27;11.70;;;2.70;99.90;;;;;;1944458;72;21082;-79
2021/10/11 04:56:26;;;;;;;17.52;12.37;;;2.70;99.90;;;;;;1926386;72;21062;-80
2021/10/11 04:58:52;;;;;;;28.98;12.58;;;2.70;99.90;;;;;;1932157;73;21181;-78
2021/10/11 05:01:20;;;;;;;17.12;11.93;;;2.70;99.90;;;;;;1931365;72;21195;-77
2021/10/11 05:03:46;;;;;;;18.20;11.83;;;2.70;99.90;;;;;;1940408;72;21204;-80
2021/10/11 05:06:12;;;;;;;20.48;11.43;;;2.70;99.90;;;;;;1936767;72;21113;-80
2021/10/11 05:08:40;;;;;;;17.92;12.18;;;2.60;99.90;;;;;;1924431;72;21066;-81
2021/10/11 05:11:06;;;;;;;15.85;12.47;;;2.50;99.90;;;;;;1939859;72;21083;-81
2021/10/11 05:13:32;;;;;;;14.73;11.95;;;2.50;99.90;;;;;;1937056;72;21161;-79
2021/10/11 05:15:59;;;;;;;21.57;13.08;;;2.60;99.90;;;;;;1921526;73;21225;-77
2021/10/11 05:18:26;;;;;;;19.95;13.30;;;2.70;99.90;;;;;;1924388;72;21075;-80
2021/10/11 05:20:52;;;;;;;19.23;12.60;;;2.70;99.90;;;;;;1918194;73;21171;-79
2021/10/11 05:23:18;;;;;;;25.60;13.60;;;2.60;99.90;;;;;;1930653;72;21114;-79
2021/10/11 05:25:44;;;;;;;34.27;13.00;;;2.60;99.90;;;;;;1943945;72;21050;-86
2021/10/11 05:28:10;;;;;;;18.55;12.95;;;2.50;99.90;;;;;;1938021;73;21071;-76
2021/10/11 05:30:36;;;;;;;19.40;12.28;;;2.50;99.90;;;;;;1926873;72;21074;-82
2021/10/11 05:33:02;;;;;;;20.30;12.15;;;2.50;99.90;;;;;;1916109;73;21140;-83
2021/10/11 05:35:28;;;;;;;16.87;13.25;;;2.50;99.90;;;;;;1931705;72;21115;-81
2021/10/11 05:37:54;;;;;;;19.17;13.32;;;2.50;99.90;;;;;;1919731;72;21031;-83
2021/10/11 05:40:21;;;;;;;20.77;13.18;;;2.50;99.90;;;;;;1927445;72;21070;-79
2021/10/11 05:42:47;;;;;;;18.90;12.45;;;2.50;99.90;;;;;;1924458;73;21055;-79
2021/10/11 05:45:13;;;;;;;18.62;13.08;;;2.60;99.90;;;;;;1952231;72;21074;-78
2021/10/11 05:47:39;;;;;;;15.50;12.23;;;2.50;99.90;;;;;;1929167;72;21084;-81
2021/10/11 05:50:07;;;;;;;21.27;13.60;;;2.50;99.90;;;;;;1935482;72;21184;-82
2021/10/11 05:52:38;;;;;;;23.47;13.75;;;2.50;99.90;;;;;;1946132;71;21288;-80
2021/10/11 05:55:01;;;;;;;20.12;13.45;;;2.60;99.90;;;;;;1924808;72;21149;-81
2021/10/11 05:57:27;;;;;;;23.83;12.45;;;2.60;99.90;;;;;;1940226;73;21168;-79
2021/10/11 05:59:53;;;;;;;19.62;13.38;;;2.60;99.90;;;;;;1943533;73;21211;-80
2021/10/11 06:02:19;;;;;;;20.08;13.22;;;2.70;99.90;;;;;;1925767;72;21071;-79
2021/10/11 06:04:45;;;;;;;20.65;12.65;;;2.70;99.90;;;;;;1941791;73;21079;-78
2021/10/11 06:07:11;;;;;;;18.32;14.83;;;2.80;99.90;;;;;;1937543;72;21066;-77
2021/10/11 06:09:37;;;;;;;22.58;14.95;;;2.70;99.90;;;;;;1944609;72;21079;-78
2021/10/11 06:12:03;;;;;;;21.52;13.80;;;2.60;99.90;;;;;;1931583;72;21044;-79
2021/10/11 06:14:30;;;;;;;21.40;14.18;;;2.60;99.90;;;;;;1938798;72;21147;-77
2021/10/11 06:16:56;;;;;;;23.87;13.40;;;2.70;99.90;;;;;;1940374;73;21059;-77
2021/10/11 06:19:22;;;;;;;19.27;13.32;;;2.80;99.90;;;;;;1939064;73;21141;-80
2021/10/11 06:21:48;;;;;;;21.73;14.05;;;2.80;99.90;;;;;;1942529;72;21094;-78
2021/10/11 06:24:14;;;;;;;21.30;13.80;;;3.00;99.90;;;;;;1925249;73;21062;-81
2021/10/11 06:26:41;;;;;;;22.40;13.35;;;2.90;99.90;;;;;;1938849;72;21087;-80
2021/10/11 06:29:07;;;;;;;16.85;12.60;;;2.90;99.90;;;;;;1943190;72;21071;-81
2021/10/11 06:31:33;;;;;;;17.00;13.13;;;3.00;99.90;;;;;;1934385;72;21078;-80
2021/10/11 06:33:59;;;;;;;21.02;13.32;;;3.10;99.90;;;;;;1944303;72;21075;-83
2021/10/11 06:36:28;;;;;;;19.62;13.03;;;3.10;99.90;;;;;;1944149;72;21074;-79
2021/10/11 06:38:53;;;;;;;25.80;14.07;;;3.10;99.90;;;;;;1939171;71;21173;-82
2021/10/11 06:41:19;;;;;;;21.68;14.23;;;3.20;99.90;;;;;;1941055;72;21133;-83
2021/10/11 06:43:45;;;;;;;22.87;13.68;;;3.20;99.90;;;;;;1914817;72;21147;-83
2021/10/11 06:46:11;;;;;;;22.13;13.62;;;3.30;99.90;;;;;;1927548;73;21062;-81
2021/10/11 06:48:38;;;;;;;23.40;13.55;;;3.30;99.90;;;;;;1945061;72;21134;-78
2021/10/11 06:51:04;;;;;;;18.32;12.80;;;3.30;99.90;;;;;;1925666;73;21078;-83
2021/10/11 06:53:30;;;;;;;23.90;13.58;;;3.30;99.90;;;;;;1917764;72;21066;-87
2021/10/11 06:55:56;;;;;;;22.07;13.80;;;3.30;99.90;;;;;;1942723;72;21074;-89
2021/10/11 06:58:24;;;;;;;29.30;13.10;;;3.40;99.90;;;;;;1940819;71;21491;-85
2021/10/11 07:00:51;;;;;;;21.87;13.83;;;3.40;99.90;;;;;;1917663;72;21074;-90
2021/10/11 07:03:23;;;;;;;22.70;13.30;;;3.40;99.90;;;;;;1944858;71;21156;-87
2021/10/11 07:05:45;;;;;;;22.93;14.30;;;3.50;99.90;;;;;;1922412;72;21480;-87
2021/10/11 07:08:11;;;;;;;22.48;13.68;;;3.60;99.90;;;;;;1925021;72;21075;-85
2021/10/11 07:10:37;;;;;;;23.42;12.95;;;3.60;99.90;;;;;;1925675;73;21141;-85
2021/10/11 07:13:03;;;;;;;25.17;13.93;;;3.80;99.90;;;;;;1939327;72;21067;-85
2021/10/11 07:15:30;;;;;;;19.80;13.45;;;3.90;99.90;;;;;;1934746;72;21136;-87
2021/10/11 07:17:56;;;;;;;17.45;12.53;;;4.00;99.90;;;;;;1944691;72;21483;-89
2021/10/11 07:20:22;;;;;;;19.77;13.00;;;4.10;99.90;;;;;;1930069;72;21132;-88
2021/10/11 07:22:48;;;;;;;16.57;12.20;;;4.10;99.90;;;;;;1942144;72;21132;-88
2021/10/11 07:25:15;;;;;;;40.78;13.75;;;4.20;99.90;;;;;;1935798;72;21579;-87
2021/10/11 07:27:41;;;;;;;23.32;13.18;;;4.20;99.90;;;;;;1943348;72;21137;-91
2021/10/11 07:30:07;;;;;;;21.52;12.63;;;4.30;99.90;;;;;;1939446;71;21051;-92
2021/10/11 07:32:33;;;;;;;25.88;12.37;;;4.40;99.90;;;;;;1931947;72;21156;-91
2021/10/11 07:34:59;;;;;;;20.70;12.75;;;4.70;99.90;;;;;;1936457;72;21078;-90
2021/10/11 07:37:25;;;;;;;26.40;12.55;;;4.80;99.90;;;;;;1938017;72;21144;-84
2021/10/11 07:39:52;;;;;;;19.90;12.88;;;4.80;99.90;;;;;;1927422;72;21066;-84
2021/10/11 07:42:18;;;;;;;19.90;12.10;;;4.70;99.90;;;;;;1936807;72;21086;-84
2021/10/11 07:44:44;;;;;;;16.10;11.90;;;4.80;99.90;;;;;;1948177;72;21178;-84
2021/10/11 07:47:10;;;;;;;18.12;12.37;;;4.90;99.90;;;;;;1934545;72;21447;-85
2021/10/11 07:49:38;;;;;;;22.40;12.15;;;5.00;99.90;;;;;;1920900;72;21466;-86
2021/10/11 07:52:05;;;;;;;18.82;12.00;;;5.20;99.90;;;;;;1935196;72;21156;-85
2021/10/11 07:54:32;;;;;;;18.05;11.95;;;5.20;99.90;;;;;;1914907;72;21480;-83
2021/10/11 07:56:58;;;;;;;21.00;12.25;;;5.40;99.90;;;;;;1931886;72;21518;-83
2021/10/11 07:59:25;;;;;;;19.67;12.28;;;5.60;99.90;;;;;;1928361;72;21110;-83
2021/10/11 08:01:51;;;;;;;26.02;11.83;;;5.60;99.90;;;;;;1927147;73;21478;-85
2021/10/11 08:04:18;;;;;;;30.32;13.00;;;5.90;99.90;;;;;;1928273;72;21540;-83
2021/10/11 08:06:44;;;;;;;20.82;12.00;;;6.10;99.90;;;;;;1932463;72;21626;-85
2021/10/11 08:09:10;;;;;;;22.65;11.57;;;6.30;99.90;;;;;;1926382;72;21475;-83
2021/10/11 08:11:39;;;;;;;18.12;12.33;;;6.40;99.90;;;;;;1942377;72;21107;-82
2021/10/11 08:14:04;;;;;;;23.25;12.35;;;6.60;99.90;;;;;;1944605;72;21044;-83
2021/10/11 08:16:30;;;;;;;21.17;11.85;;;6.70;99.90;;;;;;1941784;72;21148;-84
2021/10/11 08:18:57;;;;;;;20.10;12.05;;;7.00;99.90;;;;;;1944567;71;21067;-83
2021/10/11 08:21:23;;;;;;;19.20;11.43;;;7.00;99.90;;;;;;1928484;73;21482;-83
2021/10/11 08:23:53;;;;;;;21.00;11.50;;;7.00;99.90;;;;;;1933714;71;21486;-83
2021/10/11 08:26:17;;;;;;;25.15;12.43;;;7.10;99.90;;;;;;1936883;72;21103;-83
2021/10/11 08:28:43;;;;;;;15.03;10.82;;;7.50;99.90;;;;;;1950179;71;21217;-86
2021/10/11 08:31:09;;;;;;;17.80;10.72;;;7.70;99.90;;;;;;1935932;72;21071;-80
2021/10/11 08:33:36;;;;;;;13.88;10.78;;;8.20;99.90;;;;;;1936935;73;21070;-78
2021/10/11 08:36:02;;;;;;;16.62;10.75;;;8.60;99.90;;;;;;1941413;72;21078;-79
2021/10/11 08:38:28;;;;;;;18.30;11.75;;;8.80;99.90;;;;;;1933164;72;21573;-78
2021/10/11 08:40:54;;;;;;;18.98;11.15;;;8.90;99.90;;;;;;1930683;72;21420;-78
2021/10/11 08:43:22;;;;;;;20.57;10.95;;;9.10;99.90;;;;;;1939202;72;21491;-76
2021/10/11 08:45:49;;;;;;;21.68;11.00;;;9.30;99.90;;;;;;1935538;72;21079;-77
2021/10/11 08:48:15;;;;;;;14.38;10.63;;;9.20;99.90;;;;;;1931796;71;21074;-78
2021/10/11 08:50:41;;;;;;;18.10;10.55;;;9.40;99.90;;;;;;1936316;72;21063;-78
2021/10/11 08:53:07;;;;;;;16.40;10.72;;;9.60;99.90;;;;;;1945718;72;21048;-79
2021/10/11 08:55:34;;;;;;;20.12;10.82;;;9.80;99.90;;;;;;1927112;73;21062;-78
2021/10/11 08:58:00;;;;;;;17.00;10.75;;;10.10;99.90;;;;;;1932409;73;21063;-79
2021/10/11 09:00:26;;;;;;;16.23;10.43;;;10.10;99.90;;;;;;1948155;72;21518;-79
2021/10/11 09:02:52;;;;;;;20.97;10.78;;;10.20;99.90;;;;;;1920021;73;21474;-78
2021/10/11 09:05:19;;;;;;;14.95;10.78;;;10.20;99.90;;;;;;1925062;72;21186;-78
2021/10/11 09:07:45;;;;;;;13.70;10.80;;;10.30;99.90;;;;;;1931340;73;21144;-77
2021/10/11 09:10:11;;;;;;;24.30;11.12;;;10.20;99.90;;;;;;1941417;72;21035;-78
2021/10/11 09:12:37;;;;;;;17.82;11.03;;;10.50;99.90;;;;;;1929306;72;21074;-78
2021/10/11 09:15:03;;;;;;;19.32;10.85;;;10.30;99.90;;;;;;1930474;73;21149;-77
2021/10/11 09:17:32;;;;;;;14.63;10.00;;;10.70;99.90;;;;;;1917489;73;21086;-77
2021/10/11 09:19:58;;;;;;;13.83;10.18;;;10.90;99.90;;;;;;1934355;73;21435;-78
2021/10/11 09:22:24;;;;;;;18.77;10.38;;;11.10;99.90;;;;;;1930533;72;21137;-77
2021/10/11 09:24:50;;;;;;;13.03;10.08;;;11.40;99.90;;;;;;1942746;73;21063;-77
2021/10/11 09:27:16;;;;;;;14.28;9.80;;;11.40;99.90;;;;;;1935060;73;21075;-77
2021/10/11 09:29:44;;;;;;;14.95;10.20;;;11.20;99.90;;;;;;1916463;73;21215;-77
2021/10/11 09:32:10;;;;;;;13.88;10.03;;;11.40;99.90;;;;;;1919293;73;21101;-78
2021/10/11 09:34:36;;;;;;;14.83;10.15;;;11.60;99.90;;;;;;1939409;72;21262;-77
2021/10/11 09:37:03;;;;;;;18.32;10.35;;;11.70;99.90;;;;;;1935134;72;21140;-78
2021/10/11 09:39:29;;;;;;;13.58;10.43;;;11.70;99.90;;;;;;1940108;72;21071;-78
2021/10/11 09:41:55;;;;;;;14.73;9.50;;;11.50;99.90;;;;;;1945870;72;21206;-79
2021/10/11 09:44:21;;;;;;;17.92;10.53;;;11.70;99.90;;;;;;1945747;72;21491;-78
2021/10/11 09:46:54;;;;;;;16.85;10.48;;;12.30;99.90;;;;;;1933390;72;21133;-77
2021/10/11 09:49:17;;;;;;;14.90;9.93;;;12.60;99.90;;;;;;1920722;72;21282;-77
2021/10/11 09:51:43;;;;;;;19.87;10.80;;;12.20;99.90;;;;;;1941589;71;21133;-77
2021/10/11 09:54:09;;;;;;;17.87;10.45;;;12.20;99.90;;;;;;1931855;72;21059;-78
2021/10/11 09:56:35;;;;;;;16.12;9.98;;;12.40;99.90;;;;;;1930130;72;21153;-77
2021/10/11 09:59:01;;;;;;;15.72;10.10;;;12.70;99.90;;;;;;1936967;71;21059;-76
2021/10/11 10:04:12;;;;;;;17.02;10.18;;;13.10;99.90;;;;;;1927252;72;21132;-78
2021/10/11 10:06:38;;;;;;;16.77;9.83;;;12.90;99.90;;;;;;1943576;72;21193;-77
2021/10/11 10:09:04;;;;;;;18.40;10.58;;;12.90;99.90;;;;;;1938433;71;21136;-78
2021/10/11 10:11:30;;;;;;;18.45;10.15;;;13.10;99.90;;;;;;1930569;73;21066;-78
2021/10/11 10:13:56;;;;;;;39.10;10.82;;;13.60;99.90;;;;;;1933428;72;21136;-77
2021/10/11 10:16:22;;;;;;;15.23;9.55;;;14.50;99.90;;;;;;1923151;73;21125;-76
2021/10/11 10:18:49;;;;;;;19.90;10.68;;;14.60;99.90;;;;;;1939208;72;21071;-76
2021/10/11 10:21:15;;;;;;;14.68;10.00;;;14.70;99.90;;;;;;1931997;72;21140;-75
2021/10/11 10:23:41;;;;;;;16.17;9.63;;;14.20;99.90;;;;;;1940771;71;21595;-76
2021/10/11 10:26:07;;;;;;;20.90;9.88;;;14.30;99.90;;;;;;1948149;72;21514;-76
2021/10/11 10:28:34;;;;;;;21.17;10.03;;;14.30;99.90;;;;;;1944129;71;21135;-76
2021/10/11 10:31:00;;;;;;;19.52;10.90;;;14.40;99.90;;;;;;1937090;71;21555;-77
2021/10/11 10:33:26;;;;;;;14.20;10.30;;;14.40;99.90;;;;;;1927913;72;21035;-76
2021/10/11 10:35:52;;;;;;;13.90;9.88;;;14.30;99.90;;;;;;1925990;72;21136;-75
2021/10/11 10:38:18;;;;;;;17.50;10.85;;;14.40;99.90;;;;;;1933396;71;21164;-76
2021/10/11 10:40:44;;;;;;;14.50;9.80;;;14.30;99.90;;;;;;1938312;73;21040;-75
2021/10/11 10:43:12;;;;;;;20.02;10.25;;;14.30;99.90;;;;;;1942441;72;21070;-75
2021/10/11 10:45:38;;;;;;;16.55;10.05;;;15.00;99.90;;;;;;1916315;72;21253;-76
2021/10/11 10:48:04;;;;;;;16.42;10.08;;;15.70;99.90;;;;;;1915102;72;21066;-74
2021/10/11 10:50:31;;;;;;;14.70;10.13;;;15.80;99.90;;;;;;1941163;72;21133;-75
2021/10/11 10:52:57;;;;;;;14.15;10.20;;;16.00;99.90;;;;;;1936362;73;21063;-75
2021/10/11 10:55:23;;;;;;;18.48;10.05;;;16.00;99.90;;;;;;1913406;73;21231;-77
2021/10/11 10:57:49;;;;;;;14.43;9.65;;;16.40;99.90;;;;;;1938185;72;21067;-77
2021/10/11 11:00:18;;;;;;;18.98;9.58;;;16.20;99.90;;;;;;1916900;72;21132;-76
2021/10/11 11:02:45;;;;;;;16.85;9.65;;;16.40;99.90;;;;;;1945769;72;21501;-75
2021/10/11 11:05:11;;;;;;;15.28;10.10;;;16.90;99.90;;;;;;1940100;72;21043;-75
2021/10/11 11:07:39;;;;;;;14.20;10.00;;;16.50;99.90;;;;;;1947364;72;21074;-76
2021/10/11 11:10:05;;;;;;;18.42;10.00;;;16.30;99.90;;;;;;1942106;73;21328;-78
2021/10/11 11:12:31;;;;;;;18.00;10.68;;;16.40;99.90;;;;;;1943772;72;21193;-80
2021/10/11 11:14:57;;;;;;;17.30;10.55;;;15.90;99.90;;;;;;1942119;73;21487;-81
2021/10/11 11:17:23;;;;;;;14.73;10.53;;;15.70;99.90;;;;;;1946829;71;21490;-76
2021/10/11 11:19:50;;;;;;;17.60;10.85;;;16.10;99.90;;;;;;1921317;72;21450;-78
2021/10/11 11:22:20;;;;;;;18.98;10.50;;;15.90;99.90;;;;;;1938860;72;21416;-76
2021/10/11 11:24:44;;;;;;;18.65;10.58;;;16.60;99.90;;;;;;1942583;72;21107;-79
2021/10/11 11:27:10;;;;;;;23.02;10.88;;;16.60;99.90;;;;;;1946883;72;21144;-76
2021/10/11 11:29:36;;;;;;;18.55;10.72;;;16.50;99.90;;;;;;1928230;73;21040;-75
2021/10/11 11:32:02;;;;;;;19.57;11.18;;;15.90;99.90;;;;;;1930372;72;21137;-76
2021/10/11 11:34:28;;;;;;;16.37;10.82;;;15.30;99.90;;;;;;1927053;73;21153;-76
2021/10/11 11:36:54;;;;;;;15.95;10.58;;;15.60;99.90;;;;;;1931326;73;21142;-77
2021/10/11 11:39:20;;;;;;;20.88;11.70;;;16.00;99.90;;;;;;1942223;71;21470;-78
2021/10/11 11:41:46;;;;;;;15.98;10.45;;;16.70;99.90;;;;;;1937291;72;21507;-78
2021/10/11 11:44:13;;;;;;;16.50;9.18;;;17.00;99.90;;;;;;1918375;72;21110;-78
2021/10/11 11:46:39;;;;;;;19.17;9.38;;;17.40;99.90;;;;;;1922792;72;21106;-81
2021/10/11 11:49:05;;;;;;;13.43;9.60;;;17.60;99.90;;;;;;1939102;71;21125;-82
2021/10/11 11:51:31;;;;;;;15.70;10.40;;;17.40;99.90;;;;;;1921688;72;21129;-82
2021/10/11 11:53:57;;;;;;;24.30;8.98;;;17.60;99.90;;;;;;1936279;72;21128;-81
2021/10/11 11:56:23;;;;;;;11.80;9.18;;;17.90;99.90;;;;;;1937983;72;21067;-81
2021/10/11 11:58:49;;;;;;;17.55;9.75;;;17.90;99.90;;;;;;1913233;72;21212;-81
2021/10/11 12:01:15;;;;;;;15.43;9.88;;;17.30;99.90;;;;;;1918791;73;21128;-81
2021/10/11 12:03:42;;;;;;;18.65;11.22;;;16.60;99.90;;;;;;1905841;72;21063;-81
2021/10/11 12:06:08;;;;;;;15.45;10.30;;;17.00;99.90;;;;;;1918477;72;21254;-81
2021/10/11 12:08:34;;;;;;;18.35;10.05;;;17.30;99.90;;;;;;1923658;72;21258;-82
2021/10/11 12:11:01;;;;;;;19.95;10.78;;;17.60;99.90;;;;;;1918396;72;21062;-81
2021/10/11 12:13:27;;;;;;;18.17;10.63;;;17.50;99.90;;;;;;1938007;72;21070;-80
2021/10/11 12:15:53;;;;;;;16.87;9.63;;;17.60;99.90;;;;;;1939537;71;21070;-83
2021/10/11 12:18:19;;;;;;;12.35;8.95;;;18.00;99.90;;;;;;1925601;72;21054;-80
2021/10/11 12:20:45;;;;;;;15.30;10.32;;;18.10;99.90;;;;;;1911386;72;21100;-81
2021/10/11 12:23:11;;;;;;;18.90;10.40;;;18.10;99.90;;;;;;1936920;72;21145;-81
2021/10/11 12:25:37;;;;;;;17.10;10.45;;;17.60;99.90;;;;;;1942831;72;21140;-81
2021/10/11 12:28:04;;;;;;;16.67;10.95;;;17.10;99.90;;;;;;1937814;73;21051;-81
2021/10/11 12:30:30;;;;;;;17.15;10.50;;;17.60;99.90;;;;;;1926579;72;21422;-81
2021/10/11 12:32:56;;;;;;;15.45;10.90;;;17.90;99.90;;;;;;1943091;72;21121;-81